createdAt,value
2018-11-05T00:02:25.257Z,9.33
2018-11-05T00:04:53.672Z,6.83
2018-11-05T00:07:22.197Z,8.80
2018-11-05T00:09:50.682Z,8.77
2018-11-05T00:12:19.136Z,7.40
2018-11-05T00:14:47.643Z,6.90
2018-11-05T00:17:16.015Z,8.37
2018-11-05T00:19:44.686Z,7.60
2018-11-05T00:22:13.936Z,7.43
2018-11-05T00:24:42.377Z,7.73
2018-11-05T00:27:10.810Z,7.50
2018-11-05T00:29:39.294Z,7.73
2018-11-05T00:32:07.820Z,6.93
2018-11-05T00:34:36.228Z,9.00
2018-11-05T00:37:04.680Z,7.33
2018-11-05T00:39:33.449Z,7.93
2018-11-05T00:42:01.901Z,7.77
2018-11-05T00:44:30.404Z,7.20
2018-11-05T00:46:58.817Z,7.67
2018-11-05T00:49:27.217Z,7.77
2018-11-05T00:51:55.719Z,6.43
2018-11-05T00:54:24.168Z,7.83
2018-11-05T00:56:52.638Z,7.90
2018-11-05T00:59:21.122Z,6.30
2018-11-05T01:01:49.618Z,7.73
2018-11-05T01:04:18.045Z,9.27
2018-11-05T01:06:46.548Z,9.50
2018-11-05T01:09:15.001Z,7.30
2018-11-05T01:11:45.864Z,7.77
2018-11-05T01:14:14.465Z,9.13
2018-11-05T01:16:42.957Z,7.67
2018-11-05T01:19:11.501Z,7.60
2018-11-05T01:21:39.958Z,7.67
2018-11-05T01:24:08.397Z,9.57
2018-11-05T01:26:36.821Z,8.50
2018-11-05T01:29:05.280Z,10.47
2018-11-05T01:31:33.930Z,10.97
2018-11-05T01:34:02.364Z,9.20
2018-11-05T01:36:30.818Z,9.00
2018-11-05T01:38:59.328Z,10.87
2018-11-05T01:41:27.722Z,8.13
2018-11-05T01:43:56.053Z,8.70
2018-11-05T01:46:24.496Z,8.13
2018-11-05T01:48:53.167Z,7.50
2018-11-05T01:51:21.654Z,9.17
2018-11-05T01:53:50.097Z,8.87
2018-11-05T01:56:18.454Z,9.70
2018-11-05T01:58:46.904Z,10.20
2018-11-05T02:01:15.272Z,10.83
2018-11-05T02:03:43.734Z,11.37
2018-11-05T02:06:12.167Z,8.13
2018-11-05T02:08:40.636Z,10.83
2018-11-05T02:11:09.016Z,11.00
2018-11-05T02:13:37.402Z,9.27
2018-11-05T02:16:05.929Z,12.73
2018-11-05T02:18:34.420Z,8.30
2018-11-05T02:21:02.817Z,8.60
2018-11-05T02:23:31.265Z,9.70
2018-11-05T02:25:59.716Z,9.40
2018-11-05T02:28:28.139Z,12.00
2018-11-05T02:30:56.580Z,8.47
2018-11-05T02:33:25.037Z,8.50
2018-11-05T02:35:53.343Z,8.17
2018-11-05T02:38:22.142Z,7.83
2018-11-05T02:40:50.540Z,11.73
2018-11-05T02:43:18.991Z,11.77
2018-11-05T02:45:47.427Z,9.47
2018-11-05T02:48:15.923Z,10.80
2018-11-05T02:50:44.489Z,10.10
2018-11-05T02:53:13.056Z,11.00
2018-11-05T02:55:41.573Z,9.97
2018-11-05T02:58:10.024Z,9.57
2018-11-05T03:00:38.620Z,13.23
2018-11-05T03:03:07.076Z,13.60
2018-11-05T03:05:35.470Z,12.07
2018-11-05T03:08:03.963Z,13.73
2018-11-05T03:10:32.405Z,12.60
2018-11-05T03:13:00.855Z,12.27
2018-11-05T03:15:29.355Z,12.33
2018-11-05T03:17:57.838Z,13.20
2018-11-05T03:20:26.216Z,12.83
2018-11-05T03:22:54.637Z,13.87
2018-11-05T03:25:23.017Z,13.10
2018-11-05T03:27:51.449Z,11.37
2018-11-05T03:30:19.906Z,12.93
2018-11-05T03:32:48.408Z,13.13
2018-11-05T03:35:16.872Z,13.27
2018-11-05T03:37:46.304Z,12.13
2018-11-05T03:40:15.050Z,10.57
2018-11-05T03:42:43.774Z,10.17
2018-11-05T03:45:13.334Z,11.03
2018-11-05T03:47:41.831Z,13.17
2018-11-05T03:50:18.616Z,13.00
2018-11-05T03:52:47.645Z,14.07
2018-11-05T03:55:16.979Z,14.10
2018-11-05T03:57:45.374Z,13.73
2018-11-05T04:00:15.099Z,15.33
2018-11-05T04:02:43.410Z,14.83
2018-11-05T04:05:11.887Z,13.60
2018-11-05T04:07:40.736Z,11.60
2018-11-05T04:10:10.445Z,14.37
2018-11-05T04:12:38.887Z,14.83
2018-11-05T04:15:07.503Z,14.97
2018-11-05T04:17:35.920Z,15.30
2018-11-05T04:20:04.452Z,16.63
2018-11-05T04:22:33.367Z,15.10
2018-11-05T04:25:01.685Z,14.13
2018-11-05T04:27:30.144Z,14.33
2018-11-05T04:29:58.480Z,14.67
2018-11-05T04:32:26.918Z,14.63
2018-11-05T04:34:55.310Z,13.50
2018-11-05T04:37:23.744Z,12.97
2018-11-05T04:39:52.209Z,12.97
2018-11-05T04:42:20.551Z,13.63
2018-11-05T04:44:48.984Z,13.93
2018-11-05T04:47:17.437Z,11.87
2018-11-05T04:49:45.956Z,13.87
2018-11-05T04:52:14.660Z,10.33
2018-11-05T04:54:43.826Z,12.77
2018-11-05T04:57:12.273Z,10.87
2018-11-05T04:59:40.747Z,10.60
2018-11-05T05:02:09.151Z,11.53
2018-11-05T05:04:37.631Z,12.97
2018-11-05T05:07:06.408Z,12.20
2018-11-05T05:09:34.844Z,13.60
2018-11-05T05:12:03.424Z,14.30
2018-11-05T05:14:31.828Z,12.77
2018-11-05T05:17:00.250Z,14.27
2018-11-05T05:19:29.033Z,13.37
2018-11-05T05:21:57.421Z,13.10
2018-11-05T05:24:25.860Z,13.33
2018-11-05T05:26:54.243Z,14.63
2018-11-05T05:29:22.684Z,13.60
2018-11-05T05:31:51.126Z,12.87
2018-11-05T05:34:19.577Z,12.87
2018-11-05T05:36:47.945Z,14.37
2018-11-05T05:39:16.427Z,12.00
2018-11-05T05:41:45.005Z,13.77
2018-11-05T05:44:13.547Z,12.33
2018-11-05T05:46:42.058Z,12.23
2018-11-05T05:49:10.446Z,14.57
2018-11-05T05:51:38.832Z,12.53
2018-11-05T05:54:07.256Z,12.27
2018-11-05T05:56:35.728Z,12.20
2018-11-05T05:59:04.305Z,10.43
2018-11-05T06:01:32.754Z,11.00
2018-11-05T06:04:01.274Z,8.13
2018-11-05T06:06:29.814Z,12.23
2018-11-05T06:09:01.401Z,9.53
2018-11-05T06:11:29.930Z,9.87
2018-11-05T06:13:58.357Z,10.33
2018-11-05T06:16:26.746Z,13.10
2018-11-05T06:18:55.248Z,15.75
2018-11-05T06:21:23.747Z,11.97
2018-11-05T06:23:52.321Z,9.10
2018-11-05T06:26:20.765Z,11.60
2018-11-05T06:28:49.196Z,11.73
2018-11-05T06:31:17.764Z,11.87
2018-11-05T06:33:46.299Z,12.57
2018-11-05T06:36:14.830Z,9.77
2018-11-05T06:38:43.260Z,10.17
2018-11-05T06:41:11.743Z,12.93
2018-11-05T06:43:40.182Z,10.60
2018-11-05T06:46:08.655Z,11.23
2018-11-05T06:48:37.208Z,11.90
2018-11-05T06:51:05.624Z,9.70
2018-11-05T06:53:34.041Z,11.03
2018-11-05T06:56:02.565Z,12.10
2018-11-05T06:58:30.917Z,12.30
2018-11-05T07:00:59.358Z,9.80
2018-11-05T07:03:27.756Z,11.70
2018-11-05T07:05:56.634Z,10.43
2018-11-05T07:08:24.916Z,12.00
2018-11-05T07:10:53.328Z,12.60
2018-11-05T07:13:21.736Z,12.77
2018-11-05T07:15:50.112Z,12.97
2018-11-05T07:18:18.565Z,11.90
2018-11-05T07:20:46.896Z,11.73
2018-11-05T07:23:15.467Z,9.90
2018-11-05T07:25:43.958Z,11.53
2018-11-05T07:28:12.501Z,11.53
2018-11-05T07:30:40.976Z,12.07
2018-11-05T07:33:09.436Z,13.50
2018-11-05T07:35:37.823Z,13.47
2018-11-05T07:38:06.244Z,10.47
2018-11-05T07:40:34.824Z,15.23
2018-11-05T07:43:03.310Z,11.53
2018-11-05T07:45:31.709Z,13.40
2018-11-05T07:48:00.171Z,13.13
2018-11-05T07:50:28.613Z,13.83
2018-11-05T07:52:57.380Z,14.50
2018-11-05T07:55:25.818Z,15.37
2018-11-05T07:57:54.184Z,16.37
2018-11-05T08:00:27.824Z,15.87
2018-11-05T08:02:57.201Z,16.37
2018-11-05T08:05:25.725Z,16.37
2018-11-05T08:07:54.297Z,16.53
2018-11-05T08:10:22.657Z,14.20
2018-11-05T08:12:51.008Z,15.77
2018-11-05T08:15:21.641Z,17.30
2018-11-05T08:17:51.109Z,14.47
2018-11-05T08:20:19.518Z,17.27
2018-11-05T08:22:47.915Z,16.33
2018-11-05T08:25:16.928Z,15.00
2018-11-05T08:27:45.340Z,14.83
2018-11-05T08:30:17.122Z,15.10
2018-11-05T08:32:45.497Z,18.67
2018-11-05T08:35:14.226Z,16.10
2018-11-05T08:37:43.537Z,16.37
2018-11-05T08:40:15.797Z,15.63
2018-11-05T08:42:45.264Z,17.00
2018-11-05T08:45:15.307Z,16.10
2018-11-05T08:47:43.783Z,13.97
2018-11-05T08:50:14.713Z,16.67
2018-11-05T08:52:43.216Z,17.53
2018-11-05T08:55:13.828Z,19.00
2018-11-05T08:57:42.678Z,16.23
2018-11-05T09:00:47.221Z,17.17
2018-11-05T09:03:15.781Z,18.60
2018-11-05T09:05:44.187Z,16.63
2018-11-05T09:08:12.633Z,18.23
2018-11-05T09:10:41.436Z,18.60
2018-11-05T09:13:09.433Z,19.03
2018-11-05T09:15:37.808Z,17.07
2018-11-05T09:18:06.244Z,18.00
2018-11-05T09:20:34.684Z,17.63
2018-11-05T09:23:03.145Z,18.83
2018-11-05T09:25:31.501Z,14.50
2018-11-05T09:28:00.032Z,19.70
2018-11-05T09:30:28.364Z,18.17
2018-11-05T09:32:56.924Z,16.67
2018-11-05T09:35:25.352Z,17.67
2018-11-05T09:37:53.768Z,17.33
2018-11-05T09:40:23.613Z,17.93
2018-11-05T09:42:52.315Z,16.30
2018-11-05T09:45:22.195Z,17.30
2018-11-05T09:47:50.731Z,16.83
2018-11-05T09:50:19.763Z,17.20
2018-11-05T09:52:48.180Z,17.00
2018-11-05T09:55:17.108Z,16.20
2018-11-05T09:57:45.968Z,16.90
2018-11-05T10:00:17.513Z,16.13
2018-11-05T10:02:51.264Z,16.67
2018-11-05T10:05:19.819Z,16.07
2018-11-05T10:07:47.916Z,18.17
2018-11-05T10:10:17.146Z,17.37
2018-11-05T10:12:45.556Z,16.50
2018-11-05T10:15:14.807Z,16.13
2018-11-05T10:17:43.212Z,17.20
2018-11-05T10:20:14.910Z,20.47
2018-11-05T10:22:44.078Z,18.80
2018-11-05T10:25:13.078Z,17.63
2018-11-05T10:27:41.874Z,17.07
2018-11-05T10:30:14.725Z,17.73
2018-11-05T10:32:43.542Z,19.77
2018-11-05T10:35:12.793Z,17.40
2018-11-05T10:37:41.329Z,16.23
2018-11-05T10:40:12.006Z,18.73
2018-11-05T10:42:40.621Z,17.47
2018-11-05T10:45:10.616Z,17.63
2018-11-05T10:47:39.603Z,18.23
2018-11-05T10:50:08.827Z,17.37
2018-11-05T10:52:37.387Z,15.07
2018-11-05T10:55:06.214Z,17.50
2018-11-05T10:57:34.625Z,14.47
2018-11-05T11:00:03.112Z,17.40
2018-11-05T11:02:37.512Z,15.73
2018-11-05T11:05:07.084Z,17.53
2018-11-05T11:07:35.505Z,17.13
2018-11-05T11:10:04.417Z,17.17
2018-11-05T11:12:32.929Z,15.13
2018-11-05T11:15:01.371Z,15.80
2018-11-05T11:17:29.700Z,16.67
2018-11-05T11:19:58.044Z,17.00
2018-11-05T11:22:26.492Z,14.70
2018-11-05T11:24:54.864Z,18.10
2018-11-05T11:27:23.208Z,15.57
2018-11-05T11:29:51.661Z,16.70
2018-11-05T11:32:20.042Z,16.33
2018-11-05T11:34:48.505Z,17.30
2018-11-05T11:37:17.008Z,16.67
2018-11-05T11:39:45.745Z,18.13
2018-11-05T11:42:14.251Z,18.30
2018-11-05T11:44:42.804Z,13.90
2018-11-05T11:47:11.150Z,16.43
2018-11-05T11:49:39.568Z,15.93
2018-11-05T11:52:08.246Z,17.93
2018-11-05T11:54:37.101Z,16.00
2018-11-05T11:57:05.682Z,17.55
2018-11-05T11:59:34.325Z,21.50
2018-11-05T12:02:08.088Z,15.77
2018-11-05T12:04:36.552Z,15.97
2018-11-05T12:07:05.803Z,14.97
2018-11-05T12:09:34.280Z,14.93
2018-11-05T12:12:03.076Z,17.67
2018-11-05T12:14:31.660Z,14.03
2018-11-05T12:17:00.102Z,15.13
2018-11-05T12:19:28.568Z,14.77
2018-11-05T12:21:57.068Z,14.70
2018-11-05T12:24:25.659Z,16.93
2018-11-05T12:26:54.142Z,14.90
2018-11-05T12:29:22.590Z,16.03
2018-11-05T12:31:51.152Z,15.07
2018-11-05T12:34:19.692Z,16.80
2018-11-05T12:36:48.147Z,15.03
2018-11-05T12:39:16.796Z,14.53
2018-11-05T12:41:45.321Z,13.83
2018-11-05T12:44:13.816Z,14.33
2018-11-05T12:46:42.519Z,14.10
2018-11-05T12:49:10.999Z,14.67
2018-11-05T12:51:39.526Z,14.93
2018-11-05T12:54:07.811Z,13.63
2018-11-05T12:56:36.172Z,15.73
2018-11-05T12:59:04.718Z,14.37
2018-11-05T13:01:33.282Z,14.70
2018-11-05T13:04:01.762Z,14.73
2018-11-05T13:06:30.176Z,14.27
2018-11-05T13:08:58.624Z,12.03
2018-11-05T13:11:27.017Z,12.67
2018-11-05T13:13:55.550Z,12.93
2018-11-05T13:16:24.067Z,14.60
2018-11-05T13:18:52.746Z,15.03
2018-11-05T13:21:21.205Z,15.37
2018-11-05T13:23:49.629Z,13.60
2018-11-05T13:26:18.122Z,16.43
2018-11-05T13:28:46.610Z,14.93
2018-11-05T13:31:15.101Z,13.43
2018-11-05T13:33:43.506Z,15.00
2018-11-05T13:36:11.844Z,14.67
2018-11-05T13:38:40.240Z,13.77
2018-11-05T13:41:08.588Z,16.80
2018-11-05T13:43:42.004Z,15.03
2018-11-05T13:46:10.904Z,14.70
2018-11-05T13:48:39.208Z,16.63
2018-11-05T13:51:11.064Z,15.80
2018-11-05T13:53:39.408Z,14.50
2018-11-05T13:56:07.838Z,27.47
2018-11-05T13:58:36.269Z,17.70
2018-11-05T14:01:05.476Z,29.63
2018-11-05T14:03:34.013Z,15.60
2018-11-05T14:06:02.473Z,15.47
2018-11-05T14:08:30.994Z,14.73
2018-11-05T14:11:01.452Z,17.57
2018-11-05T14:13:29.968Z,18.87
2018-11-05T14:15:58.435Z,19.93
2018-11-05T14:18:27.048Z,15.43
2018-11-05T14:20:55.362Z,16.13
2018-11-05T14:23:23.853Z,15.53
2018-11-05T14:25:52.238Z,15.57
2018-11-05T14:28:20.922Z,14.40
2018-11-05T14:30:49.058Z,14.77
2018-11-05T14:33:17.446Z,15.40
2018-11-05T14:35:45.846Z,14.20
2018-11-05T14:38:14.388Z,15.67
2018-11-05T14:40:42.907Z,12.63
2018-11-05T14:43:11.448Z,15.80
2018-11-05T14:45:39.802Z,17.13
2018-11-05T14:48:08.304Z,17.50
2018-11-05T14:50:36.809Z,14.20
2018-11-05T14:53:05.369Z,13.43
2018-11-05T14:55:33.859Z,15.10
2018-11-05T14:58:02.327Z,14.97
2018-11-05T15:00:30.749Z,15.07
2018-11-05T15:02:59.242Z,13.30
2018-11-05T15:05:27.744Z,15.23
2018-11-05T15:07:56.205Z,16.47
2018-11-05T15:10:25.433Z,15.57
2018-11-05T15:12:53.870Z,14.97
2018-11-05T15:15:22.788Z,16.63
2018-11-05T15:17:51.245Z,15.60
2018-11-05T15:20:22.078Z,15.67
2018-11-05T15:22:50.390Z,15.67
2018-11-05T15:25:19.534Z,15.87
2018-11-05T15:27:48.029Z,14.97
2018-11-05T15:30:26.577Z,16.43
2018-11-05T15:32:54.973Z,14.63
2018-11-05T15:35:23.553Z,17.33
2018-11-05T15:37:51.973Z,16.90
2018-11-05T15:40:21.388Z,15.33
2018-11-05T15:42:49.863Z,16.23
2018-11-05T15:45:19.733Z,16.60
2018-11-05T15:47:48.163Z,14.20
2018-11-05T15:50:17.841Z,16.57
2018-11-05T15:52:46.659Z,14.53
2018-11-05T15:55:14.832Z,15.93
2018-11-05T15:57:43.234Z,13.63
2018-11-05T16:00:16.211Z,14.37
2018-11-05T16:02:46.029Z,16.97
2018-11-05T16:05:15.060Z,17.73
2018-11-05T16:07:43.766Z,13.40
2018-11-05T16:10:12.267Z,16.63
2018-11-05T16:12:40.717Z,16.63
2018-11-05T16:15:09.856Z,14.87
2018-11-05T16:17:38.914Z,15.40
2018-11-05T16:20:09.497Z,15.60
2018-11-05T16:22:37.992Z,17.27
2018-11-05T16:25:06.548Z,14.40
2018-11-05T16:27:35.157Z,15.73
2018-11-05T16:30:03.803Z,17.27
2018-11-05T16:32:32.237Z,17.93
2018-11-05T16:35:01.053Z,14.93
2018-11-05T16:37:29.428Z,17.40
2018-11-05T16:39:57.999Z,16.80
2018-11-05T16:42:26.318Z,16.90
2018-11-05T16:44:55.101Z,19.23
2018-11-05T16:47:23.641Z,17.17
2018-11-05T16:49:52.124Z,17.17
2018-11-05T16:52:20.636Z,15.93
2018-11-05T16:54:49.156Z,14.87
2018-11-05T16:57:17.692Z,16.53
2018-11-05T16:59:46.888Z,18.10
2018-11-05T17:02:16.664Z,15.90
2018-11-05T17:04:46.329Z,19.60
2018-11-05T17:07:14.787Z,16.97
2018-11-05T17:09:43.483Z,16.20
2018-11-05T17:12:11.929Z,14.83
2018-11-05T17:14:40.519Z,17.13
2018-11-05T17:17:10.141Z,15.43
2018-11-05T17:19:38.581Z,17.20
2018-11-05T17:22:07.053Z,17.40
2018-11-05T17:24:35.552Z,15.83
2018-11-05T17:27:04.271Z,15.53
2018-11-05T17:29:32.829Z,18.83
2018-11-05T17:32:01.505Z,16.83
2018-11-05T17:34:29.992Z,15.37
2018-11-05T17:37:02.176Z,17.17
2018-11-05T17:39:31.716Z,15.87
2018-11-05T17:42:00.153Z,16.50
2018-11-05T17:44:28.660Z,19.07
2018-11-05T17:46:58.277Z,18.97
2018-11-05T17:49:30.550Z,20.17
2018-11-05T17:51:59.113Z,19.17
2018-11-05T17:54:27.624Z,17.93
2018-11-05T17:56:56.209Z,15.93
2018-11-05T17:59:24.554Z,17.63
2018-11-05T18:01:53.017Z,15.53
2018-11-05T18:04:21.478Z,16.13
2018-11-05T18:06:49.902Z,15.73
2018-11-05T18:09:18.531Z,17.27
2018-11-05T18:11:46.997Z,13.80
2018-11-05T18:14:15.486Z,17.17
2018-11-05T18:16:43.913Z,19.03
2018-11-05T18:19:12.622Z,19.30
2018-11-05T18:21:41.003Z,17.13
2018-11-05T18:24:09.486Z,18.27
2018-11-05T18:26:38.021Z,16.20
2018-11-05T18:29:06.565Z,18.23
2018-11-05T18:31:34.974Z,17.37
2018-11-05T18:34:03.459Z,17.87
2018-11-05T18:36:31.997Z,18.00
2018-11-05T18:39:05.224Z,17.20
2018-11-05T18:41:33.612Z,15.80
2018-11-05T18:44:02.171Z,16.13
2018-11-05T18:46:30.846Z,17.23
2018-11-05T18:48:59.227Z,16.10
2018-11-05T18:51:27.874Z,17.13
2018-11-05T18:53:56.384Z,20.13
2018-11-05T18:56:24.884Z,21.23
2018-11-05T18:58:53.301Z,18.07
2018-11-05T19:01:21.769Z,18.27
2018-11-05T19:03:50.349Z,18.30
2018-11-05T19:06:18.665Z,21.30
2018-11-05T19:08:47.188Z,21.50
2018-11-05T19:11:15.550Z,21.77
2018-11-05T19:13:45.159Z,19.87
2018-11-05T19:16:14.999Z,18.03
2018-11-05T19:18:43.377Z,19.97
2018-11-05T19:21:11.809Z,18.37
2018-11-05T19:23:40.327Z,15.57
2018-11-05T19:26:08.807Z,14.00
2018-11-05T19:28:37.422Z,15.77
2018-11-05T19:31:05.875Z,17.80
2018-11-05T19:33:34.368Z,17.00
2018-11-05T19:36:03.678Z,18.33
2018-11-05T19:38:32.085Z,17.00
2018-11-05T19:41:00.609Z,18.23
2018-11-05T19:43:29.036Z,18.63
2018-11-05T19:45:57.446Z,16.90
2018-11-05T19:48:25.885Z,17.17
2018-11-05T19:50:54.364Z,17.67
2018-11-05T19:53:22.754Z,19.43
2018-11-05T19:55:51.215Z,19.40
2018-11-05T19:58:19.652Z,14.70
2018-11-05T20:00:48.263Z,14.80
2018-11-05T20:03:16.629Z,16.53
2018-11-05T20:05:45.134Z,15.27
2018-11-05T20:08:13.460Z,16.57
2018-11-05T20:10:43.762Z,19.97
2018-11-05T20:13:12.238Z,18.13
2018-11-05T20:15:40.672Z,17.30
2018-11-05T20:18:09.049Z,17.73
2018-11-05T20:20:37.615Z,15.20
2018-11-05T20:23:06.140Z,17.97
2018-11-05T20:25:34.477Z,19.00
2018-11-05T20:28:03.001Z,20.07
2018-11-05T20:30:32.017Z,19.13
2018-11-05T20:33:01.323Z,15.87
2018-11-05T20:35:29.709Z,19.90
2018-11-05T20:37:58.146Z,19.70
2018-11-05T20:40:26.634Z,14.93
2018-11-05T20:42:55.005Z,18.23
2018-11-05T20:45:24.071Z,18.30
2018-11-05T20:47:52.487Z,18.60
2018-11-05T20:50:20.932Z,13.20
2018-11-05T20:52:49.424Z,18.70
2018-11-05T20:55:18.281Z,18.50
2018-11-05T20:57:46.804Z,19.30
2018-11-05T21:00:16.692Z,17.97
2018-11-05T21:02:45.219Z,21.47
2018-11-05T21:05:13.728Z,18.40
2018-11-05T21:07:42.925Z,18.10
2018-11-05T21:10:12.648Z,18.57
2018-11-05T21:12:41.865Z,19.20
2018-11-05T21:15:15.821Z,18.43
2018-11-05T21:17:45.180Z,15.60
2018-11-05T21:20:14.094Z,15.17
2018-11-05T21:22:42.705Z,26.97
2018-11-05T21:25:10.968Z,28.30
2018-11-05T21:27:39.952Z,25.43
2018-11-05T21:30:10.061Z,17.57
2018-11-05T21:32:38.685Z,19.47
2018-11-05T21:35:08.852Z,19.30
2018-11-05T21:37:37.280Z,19.53
2018-11-05T21:40:06.529Z,19.33
2018-11-05T21:42:35.032Z,19.37
2018-11-05T21:45:04.050Z,20.63
2018-11-05T21:47:32.678Z,19.53
2018-11-05T21:50:00.941Z,18.67
2018-11-05T21:52:29.481Z,16.03
2018-11-05T21:54:57.830Z,17.03
2018-11-05T21:57:26.205Z,16.93
2018-11-05T21:59:54.572Z,17.67
2018-11-05T22:02:22.931Z,21.20
2018-11-05T22:04:51.403Z,18.97
2018-11-05T22:07:20.313Z,18.80
2018-11-05T22:09:48.715Z,19.90
2018-11-05T22:12:17.432Z,16.23
2018-11-05T22:14:45.848Z,17.47
2018-11-05T22:17:14.321Z,20.13
2018-11-05T22:19:42.724Z,20.53
2018-11-05T22:22:11.117Z,14.70
2018-11-05T22:24:39.521Z,18.97
2018-11-05T22:27:07.916Z,15.90
2018-11-05T22:29:36.379Z,14.37
2018-11-05T22:32:05.038Z,16.73
2018-11-05T22:34:33.440Z,18.23
2018-11-05T22:37:01.907Z,17.07
2018-11-05T22:39:30.240Z,16.67
2018-11-05T22:41:58.710Z,17.07
2018-11-05T22:44:27.015Z,17.43
2018-11-05T22:46:55.409Z,16.90
2018-11-05T22:49:23.940Z,20.57
2018-11-05T22:51:52.422Z,19.27
2018-11-05T22:54:20.888Z,17.00
2018-11-05T22:56:49.330Z,13.73
2018-11-05T22:59:17.757Z,12.33
2018-11-05T23:01:52.090Z,16.37
2018-11-05T23:04:20.577Z,15.60
2018-11-05T23:06:49.439Z,18.37
2018-11-05T23:09:17.812Z,17.50
2018-11-05T23:11:46.371Z,19.33
2018-11-05T23:14:14.878Z,18.47
2018-11-05T23:16:43.303Z,15.60
2018-11-05T23:19:11.688Z,13.53
2018-11-05T23:21:40.272Z,16.43
2018-11-05T23:24:08.710Z,15.90
2018-11-05T23:26:37.256Z,18.67
2018-11-05T23:29:07.046Z,14.50
2018-11-05T23:31:35.602Z,19.27
2018-11-05T23:34:04.162Z,20.90
2018-11-05T23:36:32.669Z,18.47
2018-11-05T23:39:01.240Z,19.50
2018-11-05T23:41:29.711Z,19.23
2018-11-05T23:43:58.270Z,18.63
2018-11-05T23:46:26.668Z,18.53
2018-11-05T23:48:58.942Z,18.17
2018-11-05T23:51:33.276Z,12.60
2018-11-05T23:54:02.869Z,13.30
2018-11-05T23:56:33.476Z,11.63
2018-11-05T23:59:02.010Z,18.70
